N317CX KSFO-KCRQ
Flight info
| Callsign | N317CX |
|---|---|
| Flight time | 1h 3m |
| Altitude | 45000 |
| Route | WESLA5 YYUNG ZIPRR LEGOZ4 |
| Aircraft | C750/M-SBDE3FGHRWXY/S |
Departure
| Time | 2026-05-08 03:40 |
|---|---|
| Airport | San Francisco International Airport (KSFO) |
Arrival
| Time | 2026-05-08 04:43 |
|---|---|
| Airport | McClellan-Palomar Airport (KCRQ) |
| Time | Latitude | Longitude | Altitude | Speed | Heading |
|---|---|---|---|---|---|
| 2026-05-08 03:20 | 37.62739 | -122.38143 | 20 ft | 0 kts | 118° |
| 2026-05-08 03:33 | 37.62738 | -122.38143 | 19 ft | 0 kts | 118° |
| 2026-05-08 03:33 | 37.62732 | -122.38127 | 19 ft | 5 kts | 118° |
| 2026-05-08 03:33 | 37.62728 | -122.38120 | 20 ft | 0 kts | 118° |
| 2026-05-08 03:34 | 37.62728 | -122.38119 | 20 ft | 1 kts | 118° |
| 2026-05-08 03:34 | 37.62720 | -122.38101 | 20 ft | 3 kts | 118° |
| 2026-05-08 03:34 | 37.62687 | -122.38066 | 19 ft | 10 kts | 173° |
| 2026-05-08 03:34 | 37.62605 | -122.38112 | 19 ft | 15 kts | 209° |
| 2026-05-08 03:35 | 37.62521 | -122.38125 | 19 ft | 12 kts | 136° |
| 2026-05-08 03:35 | 37.62473 | -122.38016 | 19 ft | 16 kts | 118° |
| 2026-05-08 03:35 | 37.62400 | -122.37842 | 21 ft | 21 kts | 118° |
| 2026-05-08 03:35 | 37.62327 | -122.37666 | 19 ft | 24 kts | 117° |
| 2026-05-08 03:36 | 37.62246 | -122.37475 | 19 ft | 25 kts | 118° |
| 2026-05-08 03:36 | 37.62167 | -122.37285 | 20 ft | 24 kts | 117° |
| 2026-05-08 03:36 | 37.62091 | -122.37100 | 19 ft | 24 kts | 117° |
| 2026-05-08 03:36 | 37.62014 | -122.36920 | 19 ft | 23 kts | 118° |
| 2026-05-08 03:37 | 37.61940 | -122.36743 | 21 ft | 23 kts | 118° |
| 2026-05-08 03:37 | 37.61868 | -122.36569 | 21 ft | 22 kts | 117° |
| 2026-05-08 03:37 | 37.61796 | -122.36400 | 19 ft | 22 kts | 118° |
| 2026-05-08 03:37 | 37.61726 | -122.36235 | 19 ft | 21 kts | 118° |
| 2026-05-08 03:38 | 37.61658 | -122.36072 | 19 ft | 21 kts | 118° |
| 2026-05-08 03:38 | 37.61591 | -122.35913 | 19 ft | 20 kts | 118° |
| 2026-05-08 03:38 | 37.61525 | -122.35759 | 19 ft | 17 kts | 119° |
| 2026-05-08 03:38 | 37.61453 | -122.35672 | 19 ft | 14 kts | 178° |
| 2026-05-08 03:39 | 37.61367 | -122.35723 | 19 ft | 14 kts | 210° |
| 2026-05-08 03:39 | 37.61286 | -122.35780 | 21 ft | 13 kts | 207° |
| 2026-05-08 03:39 | 37.61213 | -122.35835 | 19 ft | 11 kts | 225° |
| 2026-05-08 03:39 | 37.61206 | -122.35923 | 21 ft | 10 kts | 291° |
| 2026-05-08 03:40 | 37.61217 | -122.35949 | 19 ft | 7 kts | 298° |
| 2026-05-08 03:40 | 37.61441 | -122.36485 | 19 ft | 123 kts | 298° |
| 2026-05-08 03:40 | 37.61892 | -122.37509 | 656 ft | 126 kts | 298° |
| 2026-05-08 03:40 | 37.62289 | -122.38483 | 1429 ft | 133 kts | 299° |
| 2026-05-08 03:41 | 37.62792 | -122.39540 | 1993 ft | 149 kts | 303° |
| 2026-05-08 03:41 | 37.63333 | -122.40690 | 2676 ft | 157 kts | 301° |
| 2026-05-08 03:41 | 37.63857 | -122.41987 | 3223 ft | 176 kts | 297° |
| 2026-05-08 03:41 | 37.64434 | -122.43460 | 3640 ft | 201 kts | 299° |
| 2026-05-08 03:42 | 37.65160 | -122.45080 | 4373 ft | 215 kts | 301° |
| 2026-05-08 03:42 | 37.65891 | -122.46723 | 5464 ft | 216 kts | 299° |
| 2026-05-08 03:42 | 37.66602 | -122.48402 | 6449 ft | 221 kts | 296° |
| 2026-05-08 03:42 | 37.66791 | -122.50352 | 7223 ft | 230 kts | 262° |
| 2026-05-08 03:43 | 37.66168 | -122.52166 | 8428 ft | 227 kts | 234° |
| 2026-05-08 03:43 | 37.64879 | -122.53354 | 9474 ft | 238 kts | 204° |
| 2026-05-08 03:43 | 37.63220 | -122.53505 | 10486 ft | 247 kts | 174° |
| 2026-05-08 03:43 | 37.61574 | -122.52861 | 11458 ft | 249 kts | 165° |
| 2026-05-08 03:44 | 37.59932 | -122.52126 | 12364 ft | 253 kts | 164° |
| 2026-05-08 03:44 | 37.58258 | -122.51406 | 13312 ft | 255 kts | 165° |
| 2026-05-08 03:44 | 37.56503 | -122.50674 | 13849 ft | 278 kts | 165° |
| 2026-05-08 03:44 | 37.54579 | -122.49865 | 14149 ft | 305 kts | 164° |
| 2026-05-08 03:45 | 37.52528 | -122.48986 | 14827 ft | 313 kts | 164° |
| 2026-05-08 03:45 | 37.50466 | -122.48096 | 15698 ft | 315 kts | 163° |
| 2026-05-08 03:45 | 37.48304 | -122.47619 | 16354 ft | 320 kts | 184° |
| 2026-05-08 03:45 | 37.46100 | -122.47986 | 17252 ft | 321 kts | 190° |
| 2026-05-08 03:46 | 37.43910 | -122.48410 | 18109 ft | 326 kts | 189° |
| 2026-05-08 03:46 | 37.41646 | -122.48831 | 18894 ft | 331 kts | 189° |
| 2026-05-08 03:46 | 37.39308 | -122.49260 | 19265 ft | 352 kts | 189° |
| 2026-05-08 03:46 | 37.36789 | -122.49729 | 19318 ft | 380 kts | 189° |
| 2026-05-08 03:47 | 37.34091 | -122.50233 | 19407 ft | 402 kts | 189° |
| 2026-05-08 03:47 | 37.32251 | -122.50574 | 19864 ft | 404 kts | 189° |
| 2026-05-08 03:47 | 37.28516 | -122.51263 | 20836 ft | 409 kts | 189° |
| 2026-05-08 03:47 | 37.26609 | -122.51618 | 21287 ft | 412 kts | 189° |
| 2026-05-08 03:48 | 37.23760 | -122.52148 | 21965 ft | 416 kts | 189° |
| 2026-05-08 03:48 | 37.20875 | -122.52683 | 22642 ft | 421 kts | 189° |
| 2026-05-08 03:48 | 37.17962 | -122.53221 | 23315 ft | 426 kts | 189° |
| 2026-05-08 03:48 | 37.15005 | -122.53768 | 23877 ft | 432 kts | 189° |
| 2026-05-08 03:49 | 37.12022 | -122.54320 | 24486 ft | 435 kts | 189° |
| 2026-05-08 03:49 | 37.09060 | -122.54865 | 25072 ft | 438 kts | 189° |
| 2026-05-08 03:49 | 37.06030 | -122.55402 | 25638 ft | 441 kts | 188° |
| 2026-05-08 03:49 | 37.02946 | -122.55450 | 26176 ft | 447 kts | 177° |
| 2026-05-08 03:50 | 36.99865 | -122.54822 | 26777 ft | 451 kts | 167° |
| 2026-05-08 03:50 | 36.96894 | -122.53527 | 27328 ft | 456 kts | 157° |
| 2026-05-08 03:50 | 36.94101 | -122.51623 | 27888 ft | 459 kts | 150° |
| 2026-05-08 03:50 | 36.91343 | -122.49579 | 28425 ft | 463 kts | 150° |
| 2026-05-08 03:51 | 36.88552 | -122.47533 | 28960 ft | 466 kts | 150° |
| 2026-05-08 03:51 | 36.85749 | -122.45484 | 29512 ft | 468 kts | 150° |
| 2026-05-08 03:51 | 36.82927 | -122.43412 | 29981 ft | 473 kts | 150° |
| 2026-05-08 03:51 | 36.80082 | -122.41319 | 30493 ft | 475 kts | 150° |
| 2026-05-08 03:52 | 36.77217 | -122.39218 | 30863 ft | 480 kts | 150° |
| 2026-05-08 03:52 | 36.74341 | -122.37117 | 31444 ft | 478 kts | 150° |
| 2026-05-08 03:52 | 36.71482 | -122.35029 | 32132 ft | 475 kts | 150° |
| 2026-05-08 03:52 | 36.68632 | -122.32944 | 32736 ft | 474 kts | 150° |
| 2026-05-08 03:53 | 36.65791 | -122.30868 | 33427 ft | 472 kts | 150° |
| 2026-05-08 03:53 | 36.62968 | -122.28810 | 34120 ft | 470 kts | 151° |
| 2026-05-08 03:53 | 36.60151 | -122.26759 | 34707 ft | 468 kts | 150° |
| 2026-05-08 03:53 | 36.57349 | -122.24719 | 35327 ft | 466 kts | 151° |
| 2026-05-08 03:54 | 36.54559 | -122.22688 | 35913 ft | 465 kts | 151° |
| 2026-05-08 03:54 | 36.51773 | -122.20662 | 36545 ft | 462 kts | 151° |
| 2026-05-08 03:54 | 36.49054 | -122.18685 | 37123 ft | 445 kts | 152° |
| 2026-05-08 03:55 | 36.43600 | -122.14735 | 37145 ft | 460 kts | 151° |
| 2026-05-08 03:55 | 36.38125 | -122.10765 | 37148 ft | 455 kts | 151° |
| 2026-05-08 03:56 | 36.32611 | -122.06783 | 37139 ft | 460 kts | 151° |
| 2026-05-08 03:56 | 36.27100 | -122.02798 | 37138 ft | 459 kts | 152° |
| 2026-05-08 03:57 | 36.21574 | -121.98822 | 37137 ft | 459 kts | 151° |
| 2026-05-08 03:57 | 36.16088 | -121.94872 | 37121 ft | 459 kts | 151° |
| 2026-05-08 03:58 | 36.10563 | -121.90905 | 37119 ft | 459 kts | 151° |
| 2026-05-08 03:58 | 36.05037 | -121.86943 | 37108 ft | 459 kts | 151° |
| 2026-05-08 03:59 | 35.99717 | -121.82584 | 37090 ft | 461 kts | 140° |
| 2026-05-08 03:59 | 35.95529 | -121.76537 | 37093 ft | 469 kts | 126° |
| 2026-05-08 04:00 | 35.91665 | -121.69841 | 37104 ft | 489 kts | 129° |
| 2026-05-08 04:00 | 35.87279 | -121.63207 | 37096 ft | 508 kts | 129° |
| 2026-05-08 04:01 | 35.82982 | -121.56164 | 37091 ft | 519 kts | 128° |
| 2026-05-08 04:01 | 35.78467 | -121.49153 | 37084 ft | 525 kts | 129° |
| 2026-05-08 04:02 | 35.73997 | -121.42011 | 37085 ft | 528 kts | 128° |
| 2026-05-08 04:02 | 35.69460 | -121.34893 | 37084 ft | 529 kts | 129° |
| 2026-05-08 04:03 | 35.64929 | -121.27748 | 37080 ft | 531 kts | 129° |
| 2026-05-08 04:03 | 35.58133 | -121.17099 | 37083 ft | 530 kts | 128° |
| 2026-05-08 04:04 | 35.53592 | -121.09965 | 37084 ft | 530 kts | 128° |
| 2026-05-08 04:04 | 35.48559 | -121.03391 | 37067 ft | 529 kts | 139° |
| 2026-05-08 04:05 | 35.42924 | -120.97572 | 37081 ft | 530 kts | 139° |
| 2026-05-08 04:05 | 35.37480 | -120.91486 | 37091 ft | 530 kts | 139° |
| 2026-05-08 04:06 | 35.31901 | -120.85588 | 37095 ft | 531 kts | 140° |
| 2026-05-08 04:06 | 35.26393 | -120.79577 | 37098 ft | 530 kts | 139° |
| 2026-05-08 04:07 | 35.20834 | -120.73636 | 37101 ft | 530 kts | 140° |
| 2026-05-08 04:07 | 35.15299 | -120.67676 | 37085 ft | 531 kts | 139° |
| 2026-05-08 04:08 | 35.09734 | -120.61718 | 37087 ft | 532 kts | 139° |
| 2026-05-08 04:08 | 35.04166 | -120.55873 | 37081 ft | 531 kts | 143° |
| 2026-05-08 04:09 | 34.98017 | -120.50870 | 37092 ft | 532 kts | 148° |
| 2026-05-08 04:09 | 34.91843 | -120.45890 | 37094 ft | 532 kts | 146° |
| 2026-05-08 04:10 | 34.85689 | -120.40879 | 37094 ft | 533 kts | 148° |
| 2026-05-08 04:10 | 34.79510 | -120.35935 | 37091 ft | 531 kts | 147° |
| 2026-05-08 04:11 | 34.73352 | -120.30938 | 37097 ft | 532 kts | 147° |
| 2026-05-08 04:11 | 34.67161 | -120.25992 | 37076 ft | 533 kts | 147° |
| 2026-05-08 04:12 | 34.60972 | -120.21015 | 37082 ft | 534 kts | 147° |
| 2026-05-08 04:12 | 34.54768 | -120.16074 | 37082 ft | 534 kts | 147° |
| 2026-05-08 04:13 | 34.48573 | -120.11121 | 37084 ft | 533 kts | 147° |
| 2026-05-08 04:13 | 34.42412 | -120.06223 | 37044 ft | 533 kts | 147° |
| 2026-05-08 04:14 | 34.36168 | -120.01252 | 37055 ft | 533 kts | 147° |
| 2026-05-08 04:14 | 34.29999 | -119.96362 | 37017 ft | 534 kts | 147° |
| 2026-05-08 04:15 | 34.23785 | -119.91437 | 37002 ft | 536 kts | 147° |
| 2026-05-08 04:15 | 34.17559 | -119.86518 | 36970 ft | 530 kts | 147° |
| 2026-05-08 04:16 | 34.14559 | -119.84146 | 36296 ft | 504 kts | 147° |
| 2026-05-08 04:16 | 34.11694 | -119.81881 | 35653 ft | 482 kts | 147° |
| 2026-05-08 04:16 | 34.09027 | -119.79576 | 35012 ft | 464 kts | 140° |
| 2026-05-08 04:16 | 34.06741 | -119.76863 | 34420 ft | 462 kts | 131° |
| 2026-05-08 04:17 | 34.04896 | -119.73694 | 33784 ft | 463 kts | 119° |
| 2026-05-08 04:17 | 34.03371 | -119.70265 | 33193 ft | 465 kts | 118° |
| 2026-05-08 04:17 | 34.01767 | -119.66865 | 32572 ft | 468 kts | 121° |
| 2026-05-08 04:17 | 34.00008 | -119.63560 | 31952 ft | 469 kts | 123° |
| 2026-05-08 04:18 | 33.98257 | -119.60236 | 31336 ft | 470 kts | 121° |
| 2026-05-08 04:18 | 33.96599 | -119.56835 | 30720 ft | 472 kts | 119° |
| 2026-05-08 04:18 | 33.94946 | -119.53424 | 30100 ft | 469 kts | 120° |
| 2026-05-08 04:18 | 33.93248 | -119.50096 | 29438 ft | 464 kts | 121° |
| 2026-05-08 04:19 | 33.91549 | -119.46811 | 28824 ft | 460 kts | 121° |
| 2026-05-08 04:19 | 33.89902 | -119.43532 | 28223 ft | 456 kts | 120° |
| 2026-05-08 04:19 | 33.88297 | -119.40261 | 27625 ft | 452 kts | 119° |
| 2026-05-08 04:19 | 33.86730 | -119.37004 | 27031 ft | 448 kts | 119° |
| 2026-05-08 04:20 | 33.85186 | -119.33830 | 26453 ft | 444 kts | 120° |
| 2026-05-08 04:20 | 33.83619 | -119.30654 | 25871 ft | 440 kts | 120° |
| 2026-05-08 04:20 | 33.82067 | -119.27501 | 25293 ft | 436 kts | 120° |
| 2026-05-08 04:20 | 33.80537 | -119.24369 | 24722 ft | 432 kts | 119° |
| 2026-05-08 04:21 | 33.79017 | -119.21261 | 24156 ft | 430 kts | 119° |
| 2026-05-08 04:21 | 33.77501 | -119.18181 | 23586 ft | 426 kts | 119° |
| 2026-05-08 04:21 | 33.76001 | -119.15135 | 22983 ft | 422 kts | 119° |
| 2026-05-08 04:21 | 33.74512 | -119.12110 | 22433 ft | 419 kts | 119° |
| 2026-05-08 04:22 | 33.73031 | -119.09100 | 21879 ft | 417 kts | 119° |
| 2026-05-08 04:22 | 33.71561 | -119.06116 | 21337 ft | 414 kts | 120° |
| 2026-05-08 04:22 | 33.70095 | -119.03150 | 20793 ft | 412 kts | 120° |
| 2026-05-08 04:22 | 33.68624 | -119.00217 | 20253 ft | 409 kts | 120° |
| 2026-05-08 04:23 | 33.67150 | -118.97307 | 19716 ft | 407 kts | 120° |
| 2026-05-08 04:23 | 33.65694 | -118.94416 | 19183 ft | 404 kts | 120° |
| 2026-05-08 04:23 | 33.64251 | -118.91530 | 18651 ft | 402 kts | 120° |
| 2026-05-08 04:23 | 33.62811 | -118.88665 | 18090 ft | 400 kts | 120° |
| 2026-05-08 04:24 | 33.61377 | -118.85826 | 17555 ft | 396 kts | 120° |
| 2026-05-08 04:24 | 33.59957 | -118.83015 | 17033 ft | 392 kts | 120° |
| 2026-05-08 04:24 | 33.58555 | -118.80230 | 16524 ft | 388 kts | 120° |
| 2026-05-08 04:24 | 33.57152 | -118.77486 | 16060 ft | 385 kts | 122° |
| 2026-05-08 04:25 | 33.55564 | -118.74904 | 16048 ft | 387 kts | 126° |
| 2026-05-08 04:25 | 33.53981 | -118.72301 | 16060 ft | 387 kts | 124° |
| 2026-05-08 04:25 | 33.52410 | -118.69684 | 16066 ft | 387 kts | 124° |
| 2026-05-08 04:25 | 33.50822 | -118.67093 | 15952 ft | 385 kts | 125° |
| 2026-05-08 04:26 | 33.49232 | -118.64520 | 15654 ft | 382 kts | 125° |
| 2026-05-08 04:26 | 33.47664 | -118.61967 | 15330 ft | 379 kts | 125° |
| 2026-05-08 04:26 | 33.46163 | -118.59384 | 15063 ft | 377 kts | 120° |
| 2026-05-08 04:26 | 33.44939 | -118.56663 | 15079 ft | 377 kts | 117° |
| 2026-05-08 04:27 | 33.43708 | -118.53896 | 14870 ft | 375 kts | 117° |
| 2026-05-08 04:27 | 33.42473 | -118.51169 | 14522 ft | 371 kts | 117° |
| 2026-05-08 04:27 | 33.41243 | -118.48456 | 14162 ft | 369 kts | 117° |
| 2026-05-08 04:27 | 33.40030 | -118.45762 | 13785 ft | 367 kts | 117° |
| 2026-05-08 04:28 | 33.38825 | -118.43085 | 13407 ft | 365 kts | 117° |
| 2026-05-08 04:28 | 33.37625 | -118.40421 | 13044 ft | 363 kts | 117° |
| 2026-05-08 04:28 | 33.36819 | -118.37614 | 12634 ft | 346 kts | 99° |
| 2026-05-08 04:28 | 33.36504 | -118.34891 | 12351 ft | 317 kts | 97° |
| 2026-05-08 04:29 | 33.36199 | -118.32364 | 12053 ft | 301 kts | 97° |
| 2026-05-08 04:29 | 33.35885 | -118.29909 | 11759 ft | 298 kts | 97° |
| 2026-05-08 04:29 | 33.35579 | -118.27458 | 11465 ft | 298 kts | 97° |
| 2026-05-08 04:29 | 33.35281 | -118.25008 | 11167 ft | 298 kts | 97° |
| 2026-05-08 04:30 | 33.34977 | -118.22561 | 10872 ft | 297 kts | 97° |
| 2026-05-08 04:30 | 33.34650 | -118.20122 | 10576 ft | 297 kts | 98° |
| 2026-05-08 04:30 | 33.34322 | -118.17698 | 10283 ft | 292 kts | 97° |
| 2026-05-08 04:30 | 33.34009 | -118.15308 | 9989 ft | 290 kts | 97° |
| 2026-05-08 04:31 | 33.33698 | -118.12930 | 9669 ft | 290 kts | 97° |
| 2026-05-08 04:31 | 33.33383 | -118.10551 | 9366 ft | 290 kts | 97° |
| 2026-05-08 04:31 | 33.33064 | -118.08166 | 9082 ft | 290 kts | 97° |
| 2026-05-08 04:31 | 33.32746 | -118.05780 | 8803 ft | 292 kts | 97° |
| 2026-05-08 04:32 | 33.32428 | -118.03380 | 8507 ft | 293 kts | 97° |
| 2026-05-08 04:32 | 33.32112 | -118.01006 | 8223 ft | 293 kts | 97° |
| 2026-05-08 04:32 | 33.31790 | -117.98600 | 7934 ft | 293 kts | 97° |
| 2026-05-08 04:32 | 33.31469 | -117.96197 | 7645 ft | 293 kts | 97° |
| 2026-05-08 04:33 | 33.31148 | -117.93793 | 7355 ft | 293 kts | 97° |
| 2026-05-08 04:33 | 33.30825 | -117.91387 | 7068 ft | 293 kts | 97° |
| 2026-05-08 04:33 | 33.30503 | -117.88984 | 6792 ft | 293 kts | 97° |
| 2026-05-08 04:33 | 33.30181 | -117.86576 | 6501 ft | 293 kts | 97° |
| 2026-05-08 04:34 | 33.29857 | -117.84169 | 6203 ft | 293 kts | 97° |
| 2026-05-08 04:34 | 33.29533 | -117.81766 | 5904 ft | 293 kts | 97° |
| 2026-05-08 04:34 | 33.29208 | -117.79364 | 5610 ft | 292 kts | 97° |
| 2026-05-08 04:34 | 33.28882 | -117.76970 | 5316 ft | 292 kts | 97° |
| 2026-05-08 04:35 | 33.28424 | -117.74618 | 5008 ft | 292 kts | 111° |
| 2026-05-08 04:35 | 33.27351 | -117.72581 | 5058 ft | 293 kts | 124° |
| 2026-05-08 04:35 | 33.26235 | -117.70607 | 5062 ft | 275 kts | 123° |
| 2026-05-08 04:35 | 33.25237 | -117.68793 | 5053 ft | 249 kts | 123° |
| 2026-05-08 04:36 | 33.24315 | -117.67127 | 4952 ft | 236 kts | 123° |
| 2026-05-08 04:36 | 33.23407 | -117.65507 | 4677 ft | 232 kts | 123° |
| 2026-05-08 04:36 | 33.22520 | -117.63918 | 4435 ft | 226 kts | 123° |
| 2026-05-08 04:36 | 33.21669 | -117.62393 | 4448 ft | 219 kts | 123° |
| 2026-05-08 04:37 | 33.20820 | -117.60875 | 4451 ft | 221 kts | 123° |
| 2026-05-08 04:37 | 33.19962 | -117.59337 | 4460 ft | 223 kts | 123° |
| 2026-05-08 04:37 | 33.19097 | -117.57792 | 4464 ft | 224 kts | 123° |
| 2026-05-08 04:37 | 33.18230 | -117.56243 | 4467 ft | 224 kts | 123° |
| 2026-05-08 04:38 | 33.17363 | -117.54692 | 4464 ft | 225 kts | 123° |
| 2026-05-08 04:38 | 33.16497 | -117.53143 | 4461 ft | 224 kts | 123° |
| 2026-05-08 04:38 | 33.15624 | -117.51581 | 4297 ft | 228 kts | 123° |
| 2026-05-08 04:38 | 33.14753 | -117.50019 | 4076 ft | 225 kts | 123° |
| 2026-05-08 04:39 | 33.13893 | -117.48478 | 3802 ft | 221 kts | 123° |
| 2026-05-08 04:39 | 33.13048 | -117.46962 | 3519 ft | 218 kts | 123° |
| 2026-05-08 04:39 | 33.12494 | -117.45970 | 3335 ft | 215 kts | 123° |
| 2026-05-08 04:39 | 33.11677 | -117.44512 | 3048 ft | 205 kts | 123° |
| 2026-05-08 04:40 | 33.10929 | -117.43143 | 2761 ft | 189 kts | 120° |
| 2026-05-08 04:40 | 33.10677 | -117.41234 | 2448 ft | 170 kts | 82° |
| 2026-05-08 04:40 | 33.10907 | -117.39895 | 2247 ft | 160 kts | 79° |
| 2026-05-08 04:40 | 33.11103 | -117.38680 | 2029 ft | 139 kts | 79° |
| 2026-05-08 04:41 | 33.11276 | -117.37597 | 1852 ft | 129 kts | 80° |
| 2026-05-08 04:41 | 33.11391 | -117.36890 | 1739 ft | 128 kts | 80° |
| 2026-05-08 04:41 | 33.11557 | -117.35859 | 1569 ft | 126 kts | 80° |
| 2026-05-08 04:41 | 33.11722 | -117.34838 | 1408 ft | 125 kts | 80° |
| 2026-05-08 04:42 | 33.11872 | -117.33818 | 1239 ft | 124 kts | 82° |
| 2026-05-08 04:42 | 33.12010 | -117.32815 | 1035 ft | 118 kts | 79° |
| 2026-05-08 04:42 | 33.12173 | -117.31858 | 799 ft | 120 kts | 80° |
| 2026-05-08 04:42 | 33.12360 | -117.30876 | 718 ft | 123 kts | 78° |
| 2026-05-08 04:43 | 33.12523 | -117.29879 | 563 ft | 120 kts | 80° |
| 2026-05-08 04:43 | 33.12679 | -117.28920 | 367 ft | 115 kts | 80° |
| 2026-05-08 04:43 | 33.12811 | -117.28061 | 329 ft | 81 kts | 79° |
| 2026-05-08 04:43 | 33.12879 | -117.27694 | 329 ft | 19 kts | 78° |
| 2026-05-08 04:44 | 33.12899 | -117.27551 | 329 ft | 15 kts | 80° |
| 2026-05-08 04:44 | 33.12901 | -117.27448 | 331 ft | 9 kts | 132° |
| 2026-05-08 04:44 | 33.12845 | -117.27434 | 329 ft | 6 kts | 191° |
| 2026-05-08 04:44 | 33.12827 | -117.27471 | 327 ft | 6 kts | 263° |
| 2026-05-08 04:45 | 33.12821 | -117.27521 | 328 ft | 6 kts | 259° |
| 2026-05-08 04:45 | 33.12813 | -117.27573 | 327 ft | 7 kts | 258° |
| 2026-05-08 04:45 | 33.12803 | -117.27630 | 328 ft | 7 kts | 258° |
| 2026-05-08 04:45 | 33.12793 | -117.27691 | 327 ft | 7 kts | 259° |
| 2026-05-08 04:46 | 33.12784 | -117.27752 | 329 ft | 8 kts | 261° |
| 2026-05-08 04:46 | 33.12773 | -117.27819 | 328 ft | 9 kts | 259° |
| 2026-05-08 04:46 | 33.12761 | -117.27891 | 328 ft | 9 kts | 258° |
| 2026-05-08 04:46 | 33.12748 | -117.27967 | 328 ft | 10 kts | 258° |
| 2026-05-08 04:47 | 33.12736 | -117.28046 | 329 ft | 9 kts | 260° |
| 2026-05-08 04:47 | 33.12723 | -117.28125 | 329 ft | 10 kts | 258° |
| 2026-05-08 04:47 | 33.12707 | -117.28206 | 327 ft | 8 kts | 235° |
| 2026-05-08 04:47 | 33.12666 | -117.28232 | 328 ft | 6 kts | 200° |
| 2026-05-08 04:48 | 33.12659 | -117.28235 | 328 ft | 0 kts | 199° |